sensor_id;sensor_type;location;lat;lon;timestamp;pressure;altitude;pressure_sealevel;temperature;humidity
50103;BME280;35993;52.604;10.078;2023-04-07T00:02:14;101262.56;;;4.97;61.43
50103;BME280;35993;52.604;10.078;2023-04-07T00:04:39;101263.91;;;4.92;61.39
50103;BME280;35993;52.604;10.078;2023-04-07T00:07:05;101266.72;;;4.91;61.82
50103;BME280;35993;52.604;10.078;2023-04-07T00:09:31;101272.63;;;4.86;61.46
50103;BME280;35993;52.604;10.078;2023-04-07T00:11:56;101271.44;;;4.89;61.68
50103;BME280;35993;52.604;10.078;2023-04-07T00:14:22;101278.50;;;4.82;61.82
50103;BME280;35993;52.604;10.078;2023-04-07T00:16:48;101277.50;;;4.74;62.46
50103;BME280;35993;52.604;10.078;2023-04-07T00:19:13;101273.41;;;4.70;62.75
50103;BME280;35993;52.604;10.078;2023-04-07T00:21:38;101273.72;;;4.59;62.86
50103;BME280;35993;52.604;10.078;2023-04-07T00:24:04;101271.53;;;4.54;63.33
50103;BME280;35993;52.604;10.078;2023-04-07T00:26:30;101275.06;;;4.55;63.51
50103;BME280;35993;52.604;10.078;2023-04-07T00:28:57;101270.69;;;4.54;63.32
50103;BME280;35993;52.604;10.078;2023-04-07T00:31:23;101267.97;;;4.46;63.80
50103;BME280;35993;52.604;10.078;2023-04-07T00:33:49;101275.53;;;4.42;64.20
50103;BME280;35993;52.604;10.078;2023-04-07T00:36:14;101271.16;;;4.41;63.99
50103;BME280;35993;52.604;10.078;2023-04-07T00:38:40;101268.63;;;4.39;63.95
50103;BME280;35993;52.604;10.078;2023-04-07T00:41:05;101265.28;;;4.37;64.22
50103;BME280;35993;52.604;10.078;2023-04-07T00:43:31;101268.78;;;4.38;64.12
50103;BME280;35993;52.604;10.078;2023-04-07T00:45:57;101260.31;;;4.24;65.04
50103;BME280;35993;52.604;10.078;2023-04-07T00:48:23;101267.22;;;4.19;65.23
50103;BME280;35993;52.604;10.078;2023-04-07T00:50:49;101264.53;;;4.19;65.22
50103;BME280;35993;52.604;10.078;2023-04-07T00:53:15;101269.56;;;4.22;65.08
50103;BME280;35993;52.604;10.078;2023-04-07T00:55:40;101263.34;;;4.13;65.19
50103;BME280;35993;52.604;10.078;2023-04-07T00:58:06;101267.19;;;4.10;65.52
50103;BME280;35993;52.604;10.078;2023-04-07T01:00:35;101268.34;;;4.08;65.47
50103;BME280;35993;52.604;10.078;2023-04-07T01:03:08;101261.75;;;4.02;65.62
50103;BME280;35993;52.604;10.078;2023-04-07T01:05:49;101259.53;;;3.98;65.69
50103;BME280;35993;52.604;10.078;2023-04-07T01:08:27;101267.41;;;3.91;65.88
50103;BME280;35993;52.604;10.078;2023-04-07T01:11:12;101268.72;;;3.87;66.35
50103;BME280;35993;52.604;10.078;2023-04-07T01:13:48;101260.34;;;3.90;66.42
50103;BME280;35993;52.604;10.078;2023-04-07T01:16:30;101259.03;;;3.94;65.94
50103;BME280;35993;52.604;10.078;2023-04-07T01:21:55;101264.19;;;3.87;66.86
50103;BME280;35993;52.604;10.078;2023-04-07T01:24:38;101263.97;;;3.81;67.51
50103;BME280;35993;52.604;10.078;2023-04-07T01:27:41;101268.00;;;3.76;67.68
50103;BME280;35993;52.604;10.078;2023-04-07T01:30:10;101262.16;;;3.81;67.25
50103;BME280;35993;52.604;10.078;2023-04-07T01:32:38;101260.78;;;3.77;67.69
50103;BME280;35993;52.604;10.078;2023-04-07T01:35:06;101265.94;;;3.70;68.58
50103;BME280;35993;52.604;10.078;2023-04-07T01:37:35;101260.28;;;3.73;67.88
50103;BME280;35993;52.604;10.078;2023-04-07T01:40:06;101260.56;;;3.70;67.67
50103;BME280;35993;52.604;10.078;2023-04-07T01:42:33;101262.84;;;3.57;69.14
50103;BME280;35993;52.604;10.078;2023-04-07T01:45:00;101267.78;;;3.43;69.54
50103;BME280;35993;52.604;10.078;2023-04-07T01:47:27;101269.09;;;3.39;69.17
50103;BME280;35993;52.604;10.078;2023-04-07T01:49:58;101262.56;;;3.42;69.38
50103;BME280;35993;52.604;10.078;2023-04-07T01:52:26;101264.38;;;3.41;69.36
50103;BME280;35993;52.604;10.078;2023-04-07T01:54:53;101264.88;;;3.37;69.11
50103;BME280;35993;52.604;10.078;2023-04-07T01:57:19;101268.22;;;3.39;69.59
50103;BME280;35993;52.604;10.078;2023-04-07T01:59:46;101271.06;;;3.37;69.78
50103;BME280;35993;52.604;10.078;2023-04-07T02:02:13;101268.56;;;3.36;69.86
50103;BME280;35993;52.604;10.078;2023-04-07T02:04:55;101265.03;;;3.35;69.85
50103;BME280;35993;52.604;10.078;2023-04-07T02:07:30;101273.38;;;3.32;69.93
50103;BME280;35993;52.604;10.078;2023-04-07T02:09:58;101268.78;;;3.24;70.73
50103;BME280;35993;52.604;10.078;2023-04-07T02:12:27;101271.81;;;3.21;70.90
50103;BME280;35993;52.604;10.078;2023-04-07T02:15:11;101269.13;;;3.21;70.54
50103;BME280;35993;52.604;10.078;2023-04-07T02:17:39;101266.81;;;3.26;70.24
50103;BME280;35993;52.604;10.078;2023-04-07T02:20:07;101265.50;;;3.31;70.05
50103;BME280;35993;52.604;10.078;2023-04-07T02:22:37;101263.63;;;3.31;69.98
50103;BME280;35993;52.604;10.078;2023-04-07T02:25:20;101261.28;;;3.28;69.59
50103;BME280;35993;52.604;10.078;2023-04-07T02:27:45;101260.75;;;3.24;69.86
50103;BME280;35993;52.604;10.078;2023-04-07T02:30:11;101259.44;;;3.28;69.79
50103;BME280;35993;52.604;10.078;2023-04-07T02:32:37;101264.19;;;3.35;68.85
50103;BME280;35993;52.604;10.078;2023-04-07T02:35:02;101259.34;;;3.38;68.69
50103;BME280;35993;52.604;10.078;2023-04-07T02:37:28;101261.66;;;3.33;68.64
50103;BME280;35993;52.604;10.078;2023-04-07T02:39:54;101257.28;;;3.32;68.02
50103;BME280;35993;52.604;10.078;2023-04-07T02:42:19;101261.81;;;3.32;68.71
50103;BME280;35993;52.604;10.078;2023-04-07T02:44:45;101259.44;;;3.28;68.58
50103;BME280;35993;52.604;10.078;2023-04-07T02:47:10;101259.66;;;3.35;68.12
50103;BME280;35993;52.604;10.078;2023-04-07T02:49:36;101258.13;;;3.33;68.48
50103;BME280;35993;52.604;10.078;2023-04-07T02:52:01;101257.97;;;3.34;68.26
50103;BME280;35993;52.604;10.078;2023-04-07T02:54:27;101269.00;;;3.31;68.02
50103;BME280;35993;52.604;10.078;2023-04-07T02:56:52;101267.84;;;3.34;68.07
50103;BME280;35993;52.604;10.078;2023-04-07T02:59:18;101263.50;;;3.33;67.80
50103;BME280;35993;52.604;10.078;2023-04-07T03:01:44;101266.03;;;3.34;67.54
50103;BME280;35993;52.604;10.078;2023-04-07T03:04:10;101262.19;;;3.37;67.39
50103;BME280;35993;52.604;10.078;2023-04-07T03:06:35;101258.59;;;3.28;67.76
50103;BME280;35993;52.604;10.078;2023-04-07T03:09:19;101254.38;;;3.25;67.96
50103;BME280;35993;52.604;10.078;2023-04-07T03:11:44;101260.28;;;3.29;67.09
50103;BME280;35993;52.604;10.078;2023-04-07T03:14:10;101260.38;;;3.19;68.10
50103;BME280;35993;52.604;10.078;2023-04-07T03:16:43;101260.19;;;3.21;67.66
50103;BME280;35993;52.604;10.078;2023-04-07T03:19:11;101258.59;;;3.28;67.62
50103;BME280;35993;52.604;10.078;2023-04-07T03:21:41;101263.66;;;3.13;68.18
50103;BME280;35993;52.604;10.078;2023-04-07T03:24:08;101260.75;;;3.06;68.12
50103;BME280;35993;52.604;10.078;2023-04-07T03:26:34;101264.53;;;3.14;67.64
50103;BME280;35993;52.604;10.078;2023-04-07T03:29:01;101260.97;;;3.13;67.45
50103;BME280;35993;52.604;10.078;2023-04-07T03:31:28;101267.22;;;3.14;67.91
50103;BME280;35993;52.604;10.078;2023-04-07T03:33:55;101256.22;;;3.07;68.02
50103;BME280;35993;52.604;10.078;2023-04-07T03:36:21;101260.22;;;3.03;68.30
50103;BME280;35993;52.604;10.078;2023-04-07T03:38:47;101265.44;;;3.04;68.07
50103;BME280;35993;52.604;10.078;2023-04-07T03:41:14;101268.81;;;3.06;67.99
50103;BME280;35993;52.604;10.078;2023-04-07T03:43:40;101258.06;;;3.06;67.46
50103;BME280;35993;52.604;10.078;2023-04-07T03:46:06;101263.59;;;3.05;67.83
50103;BME280;35993;52.604;10.078;2023-04-07T03:48:32;101268.88;;;2.97;68.17
50103;BME280;35993;52.604;10.078;2023-04-07T03:51:04;101270.72;;;2.96;68.62
50103;BME280;35993;52.604;10.078;2023-04-07T03:53:31;101268.22;;;2.94;68.49
50103;BME280;35993;52.604;10.078;2023-04-07T03:55:58;101264.28;;;2.89;68.49
50103;BME280;35993;52.604;10.078;2023-04-07T03:58:40;101272.88;;;2.92;68.62
50103;BME280;35993;52.604;10.078;2023-04-07T04:01:12;101274.56;;;2.93;68.58
50103;BME280;35993;52.604;10.078;2023-04-07T04:03:39;101281.41;;;2.88;68.60
50103;BME280;35993;52.604;10.078;2023-04-07T04:06:24;101281.69;;;2.85;68.89
50103;BME280;35993;52.604;10.078;2023-04-07T04:08:54;101283.97;;;2.79;68.94
50103;BME280;35993;52.604;10.078;2023-04-07T04:11:20;101294.63;;;2.71;69.06
50103;BME280;35993;52.604;10.078;2023-04-07T04:13:54;101297.81;;;2.75;69.40
50103;BME280;35993;52.604;10.078;2023-04-07T04:16:20;101297.97;;;2.73;69.24
50103;BME280;35993;52.604;10.078;2023-04-07T04:18:48;101295.78;;;2.69;69.53
50103;BME280;35993;52.604;10.078;2023-04-07T04:21:14;101293.09;;;2.69;69.62
50103;BME280;35993;52.604;10.078;2023-04-07T04:23:42;101297.59;;;2.68;69.75
50103;BME280;35993;52.604;10.078;2023-04-07T04:26:07;101296.44;;;2.71;69.08
50103;BME280;35993;52.604;10.078;2023-04-07T04:28:33;101289.16;;;2.63;69.52
50103;BME280;35993;52.604;10.078;2023-04-07T04:31:00;101295.91;;;2.67;69.30
50103;BME280;35993;52.604;10.078;2023-04-07T04:33:29;101295.75;;;2.51;69.70
50103;BME280;35993;52.604;10.078;2023-04-07T04:35:57;101305.16;;;2.55;70.03
50103;BME280;35993;52.604;10.078;2023-04-07T04:38:24;101300.19;;;2.60;69.77
50103;BME280;35993;52.604;10.078;2023-04-07T04:41:03;101312.28;;;2.64;69.55
50103;BME280;35993;52.604;10.078;2023-04-07T04:43:30;101310.75;;;2.61;69.49
50103;BME280;35993;52.604;10.078;2023-04-07T04:45:57;101313.59;;;2.60;69.66
50103;BME280;35993;52.604;10.078;2023-04-07T04:48:27;101314.59;;;2.59;69.39
50103;BME280;35993;52.604;10.078;2023-04-07T04:50:52;101311.66;;;2.52;69.60
50103;BME280;35993;52.604;10.078;2023-04-07T04:53:19;101308.53;;;2.57;69.55
50103;BME280;35993;52.604;10.078;2023-04-07T04:55:50;101311.75;;;2.60;69.51
50103;BME280;35993;52.604;10.078;2023-04-07T04:58:20;101314.16;;;2.64;69.36
50103;BME280;35993;52.604;10.078;2023-04-07T05:00:53;101322.78;;;2.57;69.34
50103;BME280;35993;52.604;10.078;2023-04-07T05:03:23;101318.84;;;2.52;69.61
50103;BME280;35993;52.604;10.078;2023-04-07T05:05:51;101319.44;;;2.45;70.06
50103;BME280;35993;52.604;10.078;2023-04-07T05:08:20;101315.75;;;2.46;69.57
50103;BME280;35993;52.604;10.078;2023-04-07T05:10:46;101317.47;;;2.48;70.04
50103;BME280;35993;52.604;10.078;2023-04-07T05:13:13;101324.50;;;2.49;69.40
50103;BME280;35993;52.604;10.078;2023-04-07T05:15:40;101330.72;;;2.49;70.05
50103;BME280;35993;52.604;10.078;2023-04-07T05:18:09;101323.38;;;2.51;70.04
50103;BME280;35993;52.604;10.078;2023-04-07T05:20:34;101328.03;;;2.49;69.98
50103;BME280;35993;52.604;10.078;2023-04-07T05:23:00;101328.72;;;2.51;70.02
50103;BME280;35993;52.604;10.078;2023-04-07T05:25:31;101327.16;;;2.58;69.63
50103;BME280;35993;52.604;10.078;2023-04-07T05:27:59;101332.94;;;2.54;69.84
50103;BME280;35993;52.604;10.078;2023-04-07T05:30:25;101328.16;;;2.57;69.67
50103;BME280;35993;52.604;10.078;2023-04-07T05:32:52;101334.56;;;2.65;69.56
50103;BME280;35993;52.604;10.078;2023-04-07T05:35:27;101334.22;;;2.77;69.15
50103;BME280;35993;52.604;10.078;2023-04-07T05:37:55;101337.75;;;2.78;68.93
50103;BME280;35993;52.604;10.078;2023-04-07T05:40:20;101335.63;;;2.82;68.74
50103;BME280;35993;52.604;10.078;2023-04-07T05:42:46;101338.09;;;2.93;68.05
50103;BME280;35993;52.604;10.078;2023-04-07T05:45:12;101337.03;;;3.04;68.02
50103;BME280;35993;52.604;10.078;2023-04-07T05:47:42;101332.97;;;3.18;67.53
50103;BME280;35993;52.604;10.078;2023-04-07T05:50:09;101333.94;;;3.35;66.96
50103;BME280;35993;52.604;10.078;2023-04-07T05:52:36;101332.19;;;3.43;66.49
50103;BME280;35993;52.604;10.078;2023-04-07T05:55:14;101342.47;;;3.48;66.65
50103;BME280;35993;52.604;10.078;2023-04-07T05:57:40;101338.16;;;3.55;66.76
50103;BME280;35993;52.604;10.078;2023-04-07T06:00:08;101338.59;;;3.69;65.75
50103;BME280;35993;52.604;10.078;2023-04-07T06:02:39;101333.78;;;3.72;65.80
50103;BME280;35993;52.604;10.078;2023-04-07T06:05:09;101342.50;;;3.74;65.32
50103;BME280;35993;52.604;10.078;2023-04-07T06:07:37;101344.81;;;3.69;65.15
50103;BME280;35993;52.604;10.078;2023-04-07T06:10:03;101337.53;;;3.61;65.04
50103;BME280;35993;52.604;10.078;2023-04-07T06:12:28;101347.97;;;3.65;65.39
50103;BME280;35993;52.604;10.078;2023-04-07T06:14:55;101342.38;;;3.76;64.92
50103;BME280;35993;52.604;10.078;2023-04-07T06:17:21;101344.94;;;3.86;65.01
50103;BME280;35993;52.604;10.078;2023-04-07T06:19:47;101348.53;;;3.94;64.37
50103;BME280;35993;52.604;10.078;2023-04-07T06:22:13;101348.97;;;4.08;64.23
50103;BME280;35993;52.604;10.078;2023-04-07T06:24:38;101350.41;;;4.29;63.97
50103;BME280;35993;52.604;10.078;2023-04-07T06:27:04;101345.50;;;4.24;62.96
50103;BME280;35993;52.604;10.078;2023-04-07T06:29:34;101355.13;;;4.35;62.90
50103;BME280;35993;52.604;10.078;2023-04-07T06:32:02;101349.28;;;4.39;62.61
50103;BME280;35993;52.604;10.078;2023-04-07T06:34:28;101356.72;;;4.54;62.53
50103;BME280;35993;52.604;10.078;2023-04-07T06:36:54;101351.16;;;4.47;62.10
50103;BME280;35993;52.604;10.078;2023-04-07T06:39:19;101356.59;;;4.64;62.43
50103;BME280;35993;52.604;10.078;2023-04-07T06:41:45;101350.78;;;4.76;62.23
50103;BME280;35993;52.604;10.078;2023-04-07T06:44:11;101355.50;;;4.74;61.69
50103;BME280;35993;52.604;10.078;2023-04-07T06:46:37;101356.78;;;4.70;61.73
50103;BME280;35993;52.604;10.078;2023-04-07T06:49:03;101350.78;;;4.76;61.53
50103;BME280;35993;52.604;10.078;2023-04-07T06:51:29;101356.53;;;4.90;61.34
50103;BME280;35993;52.604;10.078;2023-04-07T06:53:54;101357.56;;;4.97;61.34
50103;BME280;35993;52.604;10.078;2023-04-07T06:56:21;101357.22;;;4.92;61.39
50103;BME280;35993;52.604;10.078;2023-04-07T06:58:47;101356.22;;;4.93;61.14
50103;BME280;35993;52.604;10.078;2023-04-07T07:01:12;101360.59;;;5.02;61.11
50103;BME280;35993;52.604;10.078;2023-04-07T07:03:38;101357.56;;;4.97;60.99
50103;BME280;35993;52.604;10.078;2023-04-07T07:06:03;101368.19;;;5.07;60.74
50103;BME280;35993;52.604;10.078;2023-04-07T07:08:29;101370.41;;;5.20;61.25
50103;BME280;35993;52.604;10.078;2023-04-07T07:10:55;101360.50;;;5.45;60.52
50103;BME280;35993;52.604;10.078;2023-04-07T07:13:22;101354.94;;;5.80;60.36
50103;BME280;35993;52.604;10.078;2023-04-07T07:15:48;101354.75;;;5.98;59.84
50103;BME280;35993;52.604;10.078;2023-04-07T07:18:14;101354.44;;;6.01;59.98
50103;BME280;35993;52.604;10.078;2023-04-07T07:20:39;101358.00;;;6.01;59.27
50103;BME280;35993;52.604;10.078;2023-04-07T07:23:05;101354.59;;;6.16;58.96
50103;BME280;35993;52.604;10.078;2023-04-07T07:25:30;101358.06;;;6.33;58.76
50103;BME280;35993;52.604;10.078;2023-04-07T07:27:56;101362.72;;;6.64;58.63
50103;BME280;35993;52.604;10.078;2023-04-07T07:30:22;101353.56;;;6.65;58.04
50103;BME280;35993;52.604;10.078;2023-04-07T07:32:49;101365.66;;;6.77;58.02
50103;BME280;35993;52.604;10.078;2023-04-07T07:35:14;101356.81;;;6.92;57.46
50103;BME280;35993;52.604;10.078;2023-04-07T07:37:40;101362.22;;;6.92;56.89
50103;BME280;35993;52.604;10.078;2023-04-07T07:40:06;101364.44;;;6.88;56.59
50103;BME280;35993;52.604;10.078;2023-04-07T07:42:32;101366.09;;;6.97;56.34
50103;BME280;35993;52.604;10.078;2023-04-07T07:44:58;101368.84;;;7.12;56.06
50103;BME280;35993;52.604;10.078;2023-04-07T07:47:24;101361.91;;;7.18;55.62
50103;BME280;35993;52.604;10.078;2023-04-07T07:49:51;101367.72;;;7.30;55.58
50103;BME280;35993;52.604;10.078;2023-04-07T07:52:16;101362.63;;;7.35;54.47
50103;BME280;35993;52.604;10.078;2023-04-07T07:54:42;101366.50;;;7.41;54.67
50103;BME280;35993;52.604;10.078;2023-04-07T07:57:08;101359.44;;;7.31;54.30
50103;BME280;35993;52.604;10.078;2023-04-07T07:59:33;101378.66;;;7.36;53.75
50103;BME280;35993;52.604;10.078;2023-04-07T08:01:59;101377.41;;;7.47;54.40
50103;BME280;35993;52.604;10.078;2023-04-07T08:04:25;101368.28;;;7.48;53.44
50103;BME280;35993;52.604;10.078;2023-04-07T08:06:51;101370.63;;;7.51;53.79
50103;BME280;35993;52.604;10.078;2023-04-07T08:09:18;101373.47;;;7.73;53.70
50103;BME280;35993;52.604;10.078;2023-04-07T08:11:44;101368.19;;;7.80;53.04
50103;BME280;35993;52.604;10.078;2023-04-07T08:14:10;101388.47;;;7.99;53.45
50103;BME280;35993;52.604;10.078;2023-04-07T08:16:35;101376.16;;;7.96;52.30
50103;BME280;35993;52.604;10.078;2023-04-07T08:19:01;101372.53;;;8.04;52.63
50103;BME280;35993;52.604;10.078;2023-04-07T08:21:27;101381.97;;;8.08;52.27
50103;BME280;35993;52.604;10.078;2023-04-07T08:23:53;101376.94;;;8.20;52.07
50103;BME280;35993;52.604;10.078;2023-04-07T08:26:19;101376.22;;;8.26;51.54
50103;BME280;35993;52.604;10.078;2023-04-07T08:28:46;101371.25;;;8.30;51.62
50103;BME280;35993;52.604;10.078;2023-04-07T08:31:11;101383.28;;;8.42;52.00
50103;BME280;35993;52.604;10.078;2023-04-07T08:33:37;101376.34;;;8.48;51.47
50103;BME280;35993;52.604;10.078;2023-04-07T08:36:03;101385.28;;;8.63;52.17
50103;BME280;35993;52.604;10.078;2023-04-07T08:38:28;101377.91;;;8.72;51.15
50103;BME280;35993;52.604;10.078;2023-04-07T08:41:11;101374.81;;;8.75;50.73
50103;BME280;35993;52.604;10.078;2023-04-07T08:43:38;101377.94;;;8.94;50.86
50103;BME280;35993;52.604;10.078;2023-04-07T08:46:04;101382.25;;;9.03;50.52
50103;BME280;35993;52.604;10.078;2023-04-07T08:48:30;101389.97;;;9.06;50.56
50103;BME280;35993;52.604;10.078;2023-04-07T08:51:07;101375.69;;;9.12;50.51
50103;BME280;35993;52.604;10.078;2023-04-07T08:53:44;101372.16;;;9.12;49.49
50103;BME280;35993;52.604;10.078;2023-04-07T08:56:13;101387.31;;;9.28;50.03
50103;BME280;35993;52.604;10.078;2023-04-07T08:58:39;101379.41;;;9.48;49.40
50103;BME280;35993;52.604;10.078;2023-04-07T09:01:04;101382.16;;;9.55;49.08
50103;BME280;35993;52.604;10.078;2023-04-07T09:03:32;101380.53;;;9.60;49.14
50103;BME280;35993;52.604;10.078;2023-04-07T09:06:00;101381.75;;;9.79;49.22
50103;BME280;35993;52.604;10.078;2023-04-07T09:08:25;101384.31;;;9.59;48.05
50103;BME280;35993;52.604;10.078;2023-04-07T09:10:51;101382.47;;;9.66;48.22
50103;BME280;35993;52.604;10.078;2023-04-07T09:13:17;101383.88;;;9.84;48.19
50103;BME280;35993;52.604;10.078;2023-04-07T09:15:43;101371.56;;;9.81;46.71
50103;BME280;35993;52.604;10.078;2023-04-07T09:18:09;101369.41;;;9.77;46.31
50103;BME280;35993;52.604;10.078;2023-04-07T09:23:33;101366.09;;;9.75;45.67
50103;BME280;35993;52.604;10.078;2023-04-07T09:26:17;101357.34;;;9.79;45.04
50103;BME280;35993;52.604;10.078;2023-04-07T09:28:49;101362.94;;;9.99;45.36
50103;BME280;35993;52.604;10.078;2023-04-07T09:31:15;101352.69;;;9.95;45.23
50103;BME280;35993;52.604;10.078;2023-04-07T09:33:41;101373.19;;;10.04;46.12
50103;BME280;35993;52.604;10.078;2023-04-07T09:36:07;101378.91;;;10.16;46.29
50103;BME280;35993;52.604;10.078;2023-04-07T09:38:39;101380.47;;;10.04;46.05
50103;BME280;35993;52.604;10.078;2023-04-07T09:43:36;101372.59;;;10.09;45.86
50103;BME280;35993;52.604;10.078;2023-04-07T09:46:16;101370.81;;;10.23;46.18
50103;BME280;35993;52.604;10.078;2023-04-07T09:48:43;101370.47;;;10.32;46.27
50103;BME280;35993;52.604;10.078;2023-04-07T09:51:19;101356.06;;;10.32;45.96
50103;BME280;35993;52.604;10.078;2023-04-07T09:53:49;101362.28;;;10.26;45.38
50103;BME280;35993;52.604;10.078;2023-04-07T09:56:17;101357.38;;;10.36;44.74
50103;BME280;35993;52.604;10.078;2023-04-07T09:58:45;101363.97;;;10.55;45.11
50103;BME280;35993;52.604;10.078;2023-04-07T10:01:12;101367.13;;;10.59;45.07
50103;BME280;35993;52.604;10.078;2023-04-07T10:03:38;101363.56;;;10.65;44.40
50103;BME280;35993;52.604;10.078;2023-04-07T10:06:05;101364.25;;;10.74;44.60
50103;BME280;35993;52.604;10.078;2023-04-07T10:08:35;101371.22;;;10.90;44.61
50103;BME280;35993;52.604;10.078;2023-04-07T10:11:03;101371.69;;;11.07;44.27
50103;BME280;35993;52.604;10.078;2023-04-07T10:13:30;101365.88;;;11.17;43.67
50103;BME280;35993;52.604;10.078;2023-04-07T10:15:57;101370.00;;;10.99;43.92
50103;BME280;35993;52.604;10.078;2023-04-07T10:18:27;101363.88;;;10.90;43.32
50103;BME280;35993;52.604;10.078;2023-04-07T10:20:59;101357.34;;;10.71;42.47
50103;BME280;35993;52.604;10.078;2023-04-07T10:23:43;101362.56;;;10.73;42.80
50103;BME280;35993;52.604;10.078;2023-04-07T10:26:14;101370.44;;;10.61;43.01
50103;BME280;35993;52.604;10.078;2023-04-07T10:28:43;101371.34;;;10.75;43.06
50103;BME280;35993;52.604;10.078;2023-04-07T10:31:11;101372.84;;;10.84;43.06
50103;BME280;35993;52.604;10.078;2023-04-07T10:33:44;101368.44;;;10.83;42.68
50103;BME280;35993;52.604;10.078;2023-04-07T10:36:11;101375.53;;;10.77;43.29
50103;BME280;35993;52.604;10.078;2023-04-07T10:38:37;101366.81;;;10.89;43.18
50103;BME280;35993;52.604;10.078;2023-04-07T10:44:04;101366.91;;;11.15;43.40
50103;BME280;35993;52.604;10.078;2023-04-07T10:47:02;101372.34;;;11.29;44.13
50103;BME280;35993;52.604;10.078;2023-04-07T10:49:32;101370.28;;;11.38;43.58
50103;BME280;35993;52.604;10.078;2023-04-07T10:52:22;101367.19;;;11.47;43.61
50103;BME280;35993;52.604;10.078;2023-04-07T10:58:27;101369.09;;;11.80;43.31
50103;BME280;35993;52.604;10.078;2023-04-07T11:03:33;101365.09;;;11.50;43.67
50103;BME280;35993;52.604;10.078;2023-04-07T11:06:09;101376.63;;;11.78;44.33
50103;BME280;35993;52.604;10.078;2023-04-07T11:08:40;101365.75;;;11.72;43.54
50103;BME280;35993;52.604;10.078;2023-04-07T11:11:08;101365.13;;;11.83;43.64
50103;BME280;35993;52.604;10.078;2023-04-07T11:13:41;101355.50;;;12.07;43.02
50103;BME280;35993;52.604;10.078;2023-04-07T11:16:07;101365.31;;;12.08;42.94
50103;BME280;35993;52.604;10.078;2023-04-07T11:18:34;101361.16;;;11.99;42.72
50103;BME280;35993;52.604;10.078;2023-04-07T11:21:00;101361.34;;;12.11;42.66
50103;BME280;35993;52.604;10.078;2023-04-07T11:23:26;101354.88;;;11.99;41.91
50103;BME280;35993;52.604;10.078;2023-04-07T11:25:59;101350.69;;;11.69;42.47
50103;BME280;35993;52.604;10.078;2023-04-07T11:28:28;101358.44;;;11.99;42.75
50103;BME280;35993;52.604;10.078;2023-04-07T11:30:55;101353.44;;;11.96;42.28
50103;BME280;35993;52.604;10.078;2023-04-07T11:33:30;101355.69;;;11.86;42.08
50103;BME280;35993;52.604;10.078;2023-04-07T11:35:57;101358.84;;;11.76;41.80
50103;BME280;35993;52.604;10.078;2023-04-07T11:38:27;101353.78;;;11.93;42.10
50103;BME280;35993;52.604;10.078;2023-04-07T11:40:54;101349.88;;;12.02;41.47
50103;BME280;35993;52.604;10.078;2023-04-07T11:43:25;101362.00;;;12.06;41.46
50103;BME280;35993;52.604;10.078;2023-04-07T11:48:32;101358.84;;;12.23;41.29
50103;BME280;35993;52.604;10.078;2023-04-07T11:50:58;101350.28;;;12.12;41.18
50103;BME280;35993;52.604;10.078;2023-04-07T11:53:29;101348.78;;;12.23;41.52
50103;BME280;35993;52.604;10.078;2023-04-07T11:55:59;101357.16;;;12.08;40.45
50103;BME280;35993;52.604;10.078;2023-04-07T11:58:25;101354.03;;;12.11;41.11
50103;BME280;35993;52.604;10.078;2023-04-07T12:00:55;101359.28;;;12.06;41.30
50103;BME280;35993;52.604;10.078;2023-04-07T12:03:21;101357.34;;;12.27;41.02
50103;BME280;35993;52.604;10.078;2023-04-07T12:05:47;101346.50;;;12.20;40.34
50103;BME280;35993;52.604;10.078;2023-04-07T12:08:13;101348.34;;;12.33;40.34
50103;BME280;35993;52.604;10.078;2023-04-07T12:10:41;101358.78;;;12.36;40.50
50103;BME280;35993;52.604;10.078;2023-04-07T12:13:07;101351.25;;;12.38;40.38
50103;BME280;35993;52.604;10.078;2023-04-07T12:15:35;101348.13;;;12.35;40.09
50103;BME280;35993;52.604;10.078;2023-04-07T12:18:02;101342.84;;;12.53;40.03
50103;BME280;35993;52.604;10.078;2023-04-07T12:20:27;101358.78;;;12.50;39.96
50103;BME280;35993;52.604;10.078;2023-04-07T12:22:53;101356.88;;;12.50;40.14
50103;BME280;35993;52.604;10.078;2023-04-07T12:25:19;101349.38;;;12.45;39.93
50103;BME280;35993;52.604;10.078;2023-04-07T12:27:44;101350.94;;;12.67;39.90
50103;BME280;35993;52.604;10.078;2023-04-07T12:30:11;101344.75;;;12.46;39.67
50103;BME280;35993;52.604;10.078;2023-04-07T12:32:37;101351.63;;;12.55;40.12
50103;BME280;35993;52.604;10.078;2023-04-07T12:35:04;101355.13;;;12.69;40.26
50103;BME280;35993;52.604;10.078;2023-04-07T12:37:29;101355.16;;;12.62;40.27
50103;BME280;35993;52.604;10.078;2023-04-07T12:39:56;101356.97;;;12.82;40.03
50103;BME280;35993;52.604;10.078;2023-04-07T12:42:21;101351.59;;;12.62;39.67
50103;BME280;35993;52.604;10.078;2023-04-07T12:44:50;101352.63;;;12.68;40.51
50103;BME280;35993;52.604;10.078;2023-04-07T12:47:16;101355.28;;;12.88;39.52
50103;BME280;35993;52.604;10.078;2023-04-07T12:49:41;101352.09;;;12.91;38.99
50103;BME280;35993;52.604;10.078;2023-04-07T12:52:07;101362.16;;;12.97;39.06
50103;BME280;35993;52.604;10.078;2023-04-07T12:54:32;101357.63;;;12.77;39.45
50103;BME280;35993;52.604;10.078;2023-04-07T12:56:58;101359.56;;;12.57;39.14
50103;BME280;35993;52.604;10.078;2023-04-07T12:59:24;101348.69;;;12.57;39.14
50103;BME280;35993;52.604;10.078;2023-04-07T13:01:50;101356.16;;;12.82;39.08
50103;BME280;35993;52.604;10.078;2023-04-07T13:04:15;101349.56;;;12.96;38.78
50103;BME280;35993;52.604;10.078;2023-04-07T13:06:42;101347.66;;;12.97;38.52
50103;BME280;35993;52.604;10.078;2023-04-07T13:09:07;101330.78;;;12.81;37.76
50103;BME280;35993;52.604;10.078;2023-04-07T13:11:33;101345.25;;;12.82;38.31
50103;BME280;35993;52.604;10.078;2023-04-07T13:13:59;101356.38;;;12.73;38.97